Terminal Aerodrome Forecast
Issued by NWS

Home | Current Version | Previous Version | Text Only | Print | Product List | Glossary On
Versions: 1 2 3 4 5 6 7 8 9 10 11 12 13 14 15
000
FTAK31 PAJN 200900 AAA
TAFAJN
TAF AMD
PAJN 200905Z 2009/2106 00000KT P6SM SCT040 BKN050 BKN100
     FM201200 00000KT 5SM BR BCFG FEW005 BKN050
     FM201600 VRB02KT 6SM BR FEW005 BKN060
     FM201800 24006KT P6SM SCT050 BKN100
     FM202300 32004KT P6SM BKN100=

USA.gov is the U.S. government's official web portal to all federal, state and local government web resources and services.